createdAt,value
2022-10-22T00:00:52.667Z,3.16
2022-10-22T00:03:18.992Z,2.86
2022-10-22T00:05:45.321Z,2.75
2022-10-22T00:08:11.664Z,2.91
2022-10-22T00:10:37.991Z,2.89
2022-10-22T00:13:04.316Z,2.80
2022-10-22T00:15:30.660Z,2.69
2022-10-22T00:17:57.000Z,2.89
2022-10-22T00:20:23.327Z,2.95
2022-10-22T00:22:49.661Z,2.80
2022-10-22T00:25:16.004Z,3.07
2022-10-22T00:27:42.738Z,2.71
2022-10-22T00:30:09.265Z,2.68
2022-10-22T00:32:35.599Z,2.85
2022-10-22T00:35:01.923Z,2.59
2022-10-22T00:37:28.247Z,2.65
2022-10-22T00:39:54.576Z,2.90
2022-10-22T00:42:21.026Z,2.88
2022-10-22T00:44:47.361Z,2.80
2022-10-22T00:47:13.847Z,2.97
2022-10-22T00:49:40.178Z,2.79
2022-10-22T00:52:06.518Z,2.78
2022-10-22T00:54:32.845Z,2.81
2022-10-22T00:56:59.175Z,2.60
2022-10-22T00:59:25.498Z,2.68
2022-10-22T01:01:51.817Z,2.76
2022-10-22T01:04:18.153Z,2.67
2022-10-22T01:06:44.499Z,2.58
2022-10-22T01:09:10.866Z,2.63
2022-10-22T01:11:37.250Z,2.52
2022-10-22T01:14:03.738Z,2.55
2022-10-22T01:16:30.078Z,2.63
2022-10-22T01:18:56.403Z,2.65
2022-10-22T01:21:22.742Z,2.58
2022-10-22T01:23:49.083Z,2.43
2022-10-22T01:26:15.494Z,2.28
2022-10-22T01:28:41.871Z,2.84
2022-10-22T01:31:08.217Z,2.46
2022-10-22T01:33:35.020Z,2.55
2022-10-22T01:36:01.374Z,2.53
2022-10-22T01:38:27.702Z,2.43
2022-10-22T01:40:54.029Z,2.27
2022-10-22T01:43:20.351Z,2.48
2022-10-22T01:45:46.672Z,2.50
2022-10-22T01:48:13.005Z,2.39
2022-10-22T01:50:39.350Z,2.25
2022-10-22T01:53:05.689Z,2.14
2022-10-22T01:55:32.031Z,2.27
2022-10-22T01:57:58.377Z,2.38
2022-10-22T02:00:24.817Z,2.40
2022-10-22T02:02:51.184Z,2.21
2022-10-22T02:05:17.524Z,2.21
2022-10-22T02:07:43.989Z,2.37
2022-10-22T02:10:10.332Z,2.25
2022-10-22T02:12:36.670Z,2.36
2022-10-22T02:15:02.991Z,2.41
2022-10-22T02:17:29.330Z,2.41
2022-10-22T02:19:55.670Z,2.21
2022-10-22T02:22:21.997Z,2.13
2022-10-22T02:24:48.330Z,2.19
2022-10-22T02:27:14.659Z,2.34
2022-10-22T02:29:40.997Z,2.36
2022-10-22T02:32:07.335Z,2.18
2022-10-22T02:34:33.686Z,2.08
2022-10-22T02:37:00.003Z,2.01
2022-10-22T02:39:26.332Z,2.43
2022-10-22T02:41:52.661Z,2.16
2022-10-22T02:44:19.002Z,2.16
2022-10-22T02:46:45.339Z,2.22
2022-10-22T02:49:11.682Z,2.08
2022-10-22T02:51:38.020Z,2.18
2022-10-22T02:54:04.359Z,2.25
2022-10-22T02:56:30.696Z,2.10
2022-10-22T02:58:57.036Z,2.12
2022-10-22T03:01:23.423Z,2.16
2022-10-22T03:03:49.793Z,2.14
2022-10-22T03:06:16.245Z,2.19
2022-10-22T03:08:42.712Z,2.03
2022-10-22T03:11:09.074Z,2.06
2022-10-22T03:13:35.403Z,2.10
2022-10-22T03:16:01.729Z,2.05
2022-10-22T03:18:28.066Z,2.27
2022-10-22T03:20:54.399Z,2.34
2022-10-22T03:23:21.200Z,2.07
2022-10-22T03:25:47.571Z,2.16
2022-10-22T03:28:13.913Z,1.72
2022-10-22T03:30:40.260Z,2.03
2022-10-22T03:33:06.592Z,2.19
2022-10-22T03:35:32.930Z,2.23
2022-10-22T03:37:59.269Z,2.09
2022-10-22T03:40:25.616Z,2.07
2022-10-22T03:42:51.957Z,1.95
2022-10-22T03:45:18.289Z,1.93
2022-10-22T03:47:44.676Z,1.98
2022-10-22T03:50:11.011Z,1.81
2022-10-22T03:52:37.341Z,1.81
2022-10-22T03:55:03.672Z,1.88
2022-10-22T03:57:30.006Z,2.05
2022-10-22T03:59:56.339Z,2.15
2022-10-22T04:02:22.683Z,1.98
2022-10-22T04:04:49.025Z,1.94
2022-10-22T04:07:15.347Z,1.93
2022-10-22T04:09:41.690Z,1.80
2022-10-22T04:12:08.030Z,1.71
2022-10-22T04:14:34.383Z,1.82
2022-10-22T04:17:00.730Z,1.69
2022-10-22T04:19:27.066Z,1.94
2022-10-22T04:21:53.411Z,1.78
2022-10-22T04:24:19.747Z,1.84
2022-10-22T04:26:46.069Z,1.73
2022-10-22T04:29:15.909Z,1.77
2022-10-22T04:31:42.771Z,1.83
2022-10-22T04:34:09.102Z,1.77
2022-10-22T04:36:35.425Z,1.74
2022-10-22T04:39:01.749Z,1.72
2022-10-22T04:41:28.092Z,1.86
2022-10-22T04:43:54.424Z,1.84
2022-10-22T04:46:20.869Z,1.73
2022-10-22T04:48:47.199Z,1.52
2022-10-22T04:51:13.539Z,1.74
2022-10-22T04:53:39.938Z,1.54
2022-10-22T04:56:06.269Z,1.68
2022-10-22T04:58:32.594Z,1.71
2022-10-22T05:00:58.944Z,1.80
2022-10-22T05:03:25.336Z,1.58
2022-10-22T05:05:51.665Z,1.59
2022-10-22T05:08:17.992Z,1.62
2022-10-22T05:10:44.337Z,1.58
2022-10-22T05:13:10.682Z,1.63
2022-10-22T05:15:37.014Z,1.55
2022-10-22T05:18:03.336Z,1.73
2022-10-22T05:20:29.660Z,1.68
2022-10-22T05:22:55.981Z,1.61
2022-10-22T05:25:22.304Z,1.50
2022-10-22T05:27:48.619Z,1.52
2022-10-22T05:30:14.953Z,1.57
2022-10-22T05:32:41.283Z,1.58
2022-10-22T05:35:07.620Z,1.60
2022-10-22T05:37:33.943Z,1.56
2022-10-22T05:40:12.470Z,1.55
2022-10-22T05:42:46.597Z,1.68
2022-10-22T05:45:12.925Z,1.74
2022-10-22T05:47:39.250Z,1.45
2022-10-22T05:50:05.634Z,1.47
2022-10-22T05:52:31.959Z,1.46
2022-10-22T05:54:58.285Z,1.55
2022-10-22T05:57:24.613Z,1.53
2022-10-22T05:59:50.940Z,1.54
2022-10-22T06:02:17.301Z,1.44
2022-10-22T06:04:43.656Z,1.38
2022-10-22T06:07:09.992Z,1.43
2022-10-22T06:12:07.543Z,1.56
2022-10-22T06:14:33.876Z,1.43
2022-10-22T06:17:00.194Z,1.27
2022-10-22T06:19:26.527Z,1.35
2022-10-22T06:21:52.854Z,1.49
2022-10-22T06:24:19.178Z,1.46
2022-10-22T06:26:45.553Z,1.42
2022-10-22T06:29:11.888Z,1.44
2022-10-22T06:31:38.214Z,1.33
2022-10-22T06:34:04.549Z,1.39
2022-10-22T06:36:30.941Z,1.57
2022-10-22T06:38:57.338Z,1.51
2022-10-22T06:41:25.785Z,1.51
2022-10-22T06:43:55.892Z,1.44
2022-10-22T06:46:22.217Z,1.83
2022-10-22T06:48:48.548Z,2.43
2022-10-22T06:51:14.881Z,3.09
2022-10-22T06:53:41.209Z,4.18
2022-10-22T06:56:07.540Z,4.64
2022-10-22T06:58:33.879Z,5.12
2022-10-22T07:01:00.315Z,5.75
2022-10-22T07:03:26.724Z,5.76
2022-10-22T07:05:53.052Z,6.17
2022-10-22T07:08:19.384Z,5.61
2022-10-22T07:10:45.715Z,4.96
2022-10-22T07:13:12.053Z,5.18
2022-10-22T07:15:38.384Z,4.82
2022-10-22T07:18:04.729Z,5.37
2022-10-22T07:20:31.074Z,4.67
2022-10-22T07:22:57.401Z,5.18
2022-10-22T07:25:23.737Z,5.56
2022-10-22T07:27:50.062Z,2.93
2022-10-22T07:30:16.389Z,2.36
2022-10-22T07:32:42.716Z,1.71
2022-10-22T07:35:09.062Z,1.74
2022-10-22T07:37:35.405Z,1.40
2022-10-22T07:40:03.839Z,1.37
2022-10-22T07:45:01.873Z,0.85
2022-10-22T07:47:28.198Z,1.86
2022-10-22T07:49:54.527Z,1.84
2022-10-22T07:52:20.865Z,1.70
2022-10-22T07:54:47.202Z,1.88
2022-10-22T07:57:13.528Z,1.73
2022-10-22T07:59:39.863Z,1.67
2022-10-22T08:02:06.206Z,1.52
2022-10-22T08:04:32.546Z,1.42
2022-10-22T08:06:58.876Z,1.52
2022-10-22T08:09:25.250Z,1.42
2022-10-22T08:11:51.581Z,1.39
2022-10-22T08:14:17.910Z,1.20
2022-10-22T08:16:44.227Z,1.29
2022-10-22T08:19:10.555Z,1.37
2022-10-22T08:21:36.900Z,1.45
2022-10-22T08:24:03.269Z,2.27
2022-10-22T08:26:29.644Z,1.83
2022-10-22T08:28:56.057Z,1.19
2022-10-22T08:31:22.408Z,1.43
2022-10-22T08:33:48.748Z,1.45
2022-10-22T08:36:15.071Z,1.33
2022-10-22T08:38:41.402Z,1.44
2022-10-22T08:41:07.823Z,1.37
2022-10-22T08:43:34.233Z,1.34
2022-10-22T08:46:00.551Z,1.20
2022-10-22T08:48:26.877Z,1.16
2022-10-22T08:50:53.194Z,1.39
2022-10-22T08:53:19.516Z,1.28
2022-10-22T08:55:45.833Z,1.08
2022-10-22T08:58:12.151Z,1.25
2022-10-22T09:00:38.483Z,1.18
2022-10-22T09:03:04.805Z,1.14
2022-10-22T09:05:31.131Z,1.14
2022-10-22T09:07:57.451Z,1.29
2022-10-22T09:10:23.773Z,1.07
2022-10-22T09:12:50.101Z,1.07
2022-10-22T09:15:16.430Z,1.02
2022-10-22T09:17:43.054Z,1.26
2022-10-22T09:20:09.523Z,1.01
2022-10-22T09:22:36.257Z,1.08
2022-10-22T09:25:02.602Z,1.01
2022-10-22T09:27:28.939Z,0.93
2022-10-22T09:29:55.264Z,0.97
2022-10-22T09:32:21.635Z,0.91
2022-10-22T09:34:47.956Z,0.95
2022-10-22T09:37:14.585Z,0.90
2022-10-22T09:39:40.903Z,1.10
2022-10-22T09:42:07.241Z,0.97
2022-10-22T09:44:33.564Z,1.03
2022-10-22T09:46:59.901Z,0.82
2022-10-22T09:49:26.224Z,0.94
2022-10-22T09:51:52.569Z,0.86
2022-10-22T09:54:18.902Z,0.89
2022-10-22T09:56:45.229Z,0.97
2022-10-22T09:59:11.557Z,0.79
2022-10-22T10:01:37.879Z,0.94
2022-10-22T10:04:08.413Z,0.88
2022-10-22T10:06:35.869Z,0.86
2022-10-22T10:09:02.263Z,0.91
2022-10-22T10:11:29.442Z,0.81
2022-10-22T10:13:55.966Z,0.81
2022-10-22T10:16:22.308Z,0.84
2022-10-22T10:18:48.657Z,0.96
2022-10-22T10:23:41.215Z,0.96
2022-10-22T10:26:07.579Z,1.03
2022-10-22T10:28:33.910Z,0.93
2022-10-22T10:31:00.238Z,1.03
2022-10-22T10:33:26.652Z,0.98
2022-10-22T10:35:52.989Z,1.00
2022-10-22T10:38:19.452Z,0.97
2022-10-22T10:40:45.800Z,1.00
2022-10-22T10:43:12.137Z,1.05
2022-10-22T10:45:38.478Z,1.05
2022-10-22T10:48:04.808Z,0.99
2022-10-22T10:50:31.137Z,1.02
2022-10-22T10:52:57.460Z,0.95
2022-10-22T10:55:23.793Z,1.04
2022-10-22T10:57:50.123Z,0.98
2022-10-22T11:00:16.445Z,0.92
2022-10-22T11:02:42.790Z,1.02
2022-10-22T11:05:09.181Z,0.88
2022-10-22T11:07:35.510Z,0.99
2022-10-22T11:10:01.838Z,0.91
2022-10-22T11:12:28.172Z,0.84
2022-10-22T11:14:54.499Z,0.91
2022-10-22T11:17:20.817Z,0.89
2022-10-22T11:19:51.671Z,1.06
2022-10-22T11:22:19.380Z,1.07
2022-10-22T11:24:46.948Z,1.07
2022-10-22T11:27:13.273Z,1.03
2022-10-22T11:29:39.590Z,0.94
2022-10-22T11:32:05.909Z,0.98
2022-10-22T11:34:34.309Z,1.07
2022-10-22T11:37:01.014Z,1.00
2022-10-22T11:39:27.339Z,0.93
2022-10-22T11:41:53.656Z,0.98
2022-10-22T11:44:19.988Z,0.91
2022-10-22T11:46:46.311Z,0.90
2022-10-22T11:49:12.634Z,0.86
2022-10-22T11:51:38.959Z,0.83
2022-10-22T11:54:05.288Z,0.81
2022-10-22T11:56:31.600Z,0.89
2022-10-22T11:58:57.912Z,0.91
2022-10-22T12:01:24.320Z,0.85
2022-10-22T12:03:50.684Z,0.87
2022-10-22T12:06:17.014Z,0.78
2022-10-22T12:08:43.419Z,0.92
2022-10-22T12:11:09.771Z,0.83
2022-10-22T12:13:36.101Z,0.85
2022-10-22T12:16:02.438Z,0.92
2022-10-22T12:18:28.767Z,0.88
2022-10-22T12:20:55.106Z,0.89
2022-10-22T12:23:21.450Z,0.83
2022-10-22T12:25:47.782Z,0.73
2022-10-22T12:28:14.119Z,0.81
2022-10-22T12:30:40.436Z,0.64
2022-10-22T12:33:06.778Z,0.94
2022-10-22T12:35:33.101Z,0.78
2022-10-22T12:37:59.428Z,0.78
2022-10-22T12:40:25.748Z,0.74
2022-10-22T12:42:52.067Z,0.72
2022-10-22T12:45:18.388Z,0.72
2022-10-22T12:47:44.709Z,0.73
2022-10-22T12:50:11.033Z,0.79
2022-10-22T12:52:37.358Z,0.75
2022-10-22T12:55:03.694Z,0.60
2022-10-22T12:57:30.026Z,0.75
2022-10-22T12:59:56.388Z,0.78
2022-10-22T13:02:22.748Z,0.68
2022-10-22T13:04:49.072Z,0.72
2022-10-22T13:07:18.464Z,0.68
2022-10-22T13:09:48.242Z,0.79
2022-10-22T13:12:14.566Z,0.67
2022-10-22T13:14:40.886Z,0.73
2022-10-22T13:17:07.211Z,0.68
2022-10-22T13:19:34.666Z,0.68
2022-10-22T13:22:01.462Z,0.73
2022-10-22T13:24:27.848Z,0.63
2022-10-22T13:26:54.164Z,0.92
2022-10-22T13:29:20.501Z,0.69
2022-10-22T13:31:46.849Z,0.66
2022-10-22T13:34:16.420Z,0.66
2022-10-22T13:36:43.493Z,0.67
2022-10-22T13:39:09.809Z,0.65
2022-10-22T13:41:36.183Z,0.64
2022-10-22T13:44:02.584Z,0.65
2022-10-22T13:46:28.937Z,0.74
2022-10-22T13:48:55.274Z,0.80
2022-10-22T13:51:21.611Z,0.74
2022-10-22T13:53:47.932Z,0.71
2022-10-22T13:56:14.257Z,0.68
2022-10-22T13:58:40.574Z,0.68
2022-10-22T14:01:07.199Z,0.70
2022-10-22T14:03:33.541Z,0.62
2022-10-22T14:05:59.869Z,0.66
2022-10-22T14:08:26.193Z,0.67
2022-10-22T14:10:52.562Z,0.71
2022-10-22T14:13:18.966Z,0.80
2022-10-22T14:15:45.310Z,0.66
2022-10-22T14:18:11.634Z,0.88
2022-10-22T14:20:37.952Z,0.69
2022-10-22T14:23:04.296Z,0.71
2022-10-22T14:25:30.640Z,0.60
2022-10-22T14:27:56.968Z,0.62
2022-10-22T14:30:23.298Z,0.64
2022-10-22T14:32:49.622Z,0.74
2022-10-22T14:35:15.935Z,0.65
2022-10-22T14:37:42.265Z,0.62
2022-10-22T14:40:08.591Z,0.61
2022-10-22T14:42:34.907Z,0.66
2022-10-22T14:45:01.239Z,0.64
2022-10-22T14:47:27.564Z,0.57
2022-10-22T14:49:53.885Z,0.58
2022-10-22T14:52:20.226Z,0.51
2022-10-22T14:54:46.562Z,0.56
2022-10-22T14:57:12.893Z,0.51
2022-10-22T14:59:39.213Z,0.64
2022-10-22T15:02:05.542Z,0.58
2022-10-22T15:04:31.857Z,0.56
2022-10-22T15:06:58.186Z,0.97
2022-10-22T15:09:24.515Z,0.70
2022-10-22T15:11:50.846Z,0.63
2022-10-22T15:14:17.178Z,0.70
2022-10-22T15:16:43.513Z,0.84
2022-10-22T15:19:09.855Z,0.61
2022-10-22T15:21:36.210Z,0.72
2022-10-22T15:24:02.551Z,0.78
2022-10-22T15:26:28.875Z,0.84
2022-10-22T15:28:55.269Z,0.69
2022-10-22T15:31:21.590Z,0.65
2022-10-22T15:33:47.917Z,0.75
2022-10-22T15:36:14.257Z,0.80
2022-10-22T15:38:40.584Z,0.78
2022-10-22T15:41:06.912Z,0.86
2022-10-22T15:43:33.242Z,0.78
2022-10-22T15:45:59.590Z,0.72
2022-10-22T15:48:25.995Z,0.73
2022-10-22T15:50:52.332Z,0.67
2022-10-22T15:53:18.660Z,0.69
2022-10-22T15:55:45.000Z,0.83
2022-10-22T15:58:11.326Z,0.95
2022-10-22T16:00:37.757Z,0.97
2022-10-22T16:03:04.151Z,0.88
2022-10-22T16:05:30.480Z,0.88
2022-10-22T16:07:56.814Z,0.91
2022-10-22T16:10:23.141Z,0.98
2022-10-22T16:12:49.462Z,0.95
2022-10-22T16:15:15.784Z,0.84
2022-10-22T16:17:42.110Z,1.00
2022-10-22T16:20:08.528Z,0.99
2022-10-22T16:22:34.942Z,0.80
2022-10-22T16:25:01.301Z,0.95
2022-10-22T16:27:27.625Z,0.96
2022-10-22T16:29:53.951Z,0.80
2022-10-22T16:32:20.273Z,0.80
2022-10-22T16:34:46.611Z,0.80
2022-10-22T16:37:12.936Z,0.91
2022-10-22T16:39:39.274Z,0.93
2022-10-22T16:42:05.613Z,0.89
2022-10-22T16:44:31.948Z,1.08
2022-10-22T16:46:58.288Z,1.97
2022-10-22T16:49:24.632Z,4.82
2022-10-22T16:51:50.974Z,4.98
2022-10-22T16:54:17.317Z,4.82
2022-10-22T16:56:43.641Z,5.09
2022-10-22T16:59:09.975Z,5.56
2022-10-22T17:01:40.655Z,7.37
2022-10-22T17:04:07.678Z,10.59
2022-10-22T17:06:34.013Z,11.45
2022-10-22T17:09:00.409Z,9.60
2022-10-22T17:11:26.814Z,7.71
2022-10-22T17:13:53.156Z,6.02
2022-10-22T17:16:19.480Z,4.14
2022-10-22T17:21:17.047Z,3.37
2022-10-22T17:23:43.371Z,3.34
2022-10-22T17:26:29.841Z,3.26
2022-10-22T17:28:56.358Z,3.23
2022-10-22T17:31:22.709Z,3.33
2022-10-22T17:33:49.057Z,3.22
2022-10-22T17:36:15.388Z,3.47
2022-10-22T17:38:41.732Z,3.39
2022-10-22T17:41:10.342Z,2.92
2022-10-22T17:43:38.886Z,3.18
2022-10-22T17:46:05.515Z,3.42
2022-10-22T17:48:32.220Z,3.33
2022-10-22T17:50:59.392Z,3.50
2022-10-22T17:53:25.780Z,3.41
2022-10-22T17:55:52.104Z,3.58
2022-10-22T17:58:18.432Z,3.55
2022-10-22T18:00:44.835Z,3.20
2022-10-22T18:03:11.190Z,3.13
2022-10-22T18:05:37.534Z,3.47
2022-10-22T18:08:07.010Z,3.45
2022-10-22T18:10:34.172Z,3.02
2022-10-22T18:13:00.505Z,2.87
2022-10-22T18:15:26.818Z,3.25
2022-10-22T18:17:53.142Z,2.87
2022-10-22T18:20:19.463Z,3.15
2022-10-22T18:22:45.786Z,2.64
2022-10-22T18:25:12.107Z,2.92
2022-10-22T18:27:38.527Z,3.11
2022-10-22T18:30:04.967Z,2.68
2022-10-22T18:32:31.292Z,3.09
2022-10-22T18:34:57.615Z,3.37
2022-10-22T18:37:23.931Z,3.06
2022-10-22T18:39:50.252Z,2.98
2022-10-22T18:42:16.698Z,2.99
2022-10-22T18:44:43.020Z,2.79
2022-10-22T18:47:09.348Z,2.82
2022-10-22T18:49:35.928Z,2.70
2022-10-22T18:52:02.256Z,2.81
2022-10-22T18:54:28.590Z,2.51
2022-10-22T18:56:57.091Z,2.59
2022-10-22T18:59:24.451Z,2.48
2022-10-22T19:01:50.785Z,2.57
2022-10-22T19:04:17.119Z,2.77
2022-10-22T19:06:45.813Z,2.45
2022-10-22T19:09:12.385Z,2.41
2022-10-22T19:11:38.749Z,2.40
2022-10-22T19:14:05.086Z,2.29
2022-10-22T19:16:31.428Z,2.30
2022-10-22T19:18:57.766Z,2.64
2022-10-22T19:21:24.080Z,2.28
2022-10-22T19:23:50.421Z,2.17
2022-10-22T19:26:16.782Z,2.06
2022-10-22T19:28:43.112Z,2.25
2022-10-22T19:31:09.450Z,2.08
2022-10-22T19:33:35.870Z,1.98
2022-10-22T19:36:02.206Z,1.91
2022-10-22T19:38:28.622Z,1.79
2022-10-22T19:40:54.949Z,1.81
2022-10-22T19:43:21.277Z,1.92
2022-10-22T19:45:47.653Z,1.80
2022-10-22T19:48:14.001Z,1.98
2022-10-22T19:50:40.336Z,1.85
2022-10-22T19:53:06.674Z,1.86
2022-10-22T19:55:33.001Z,1.73
2022-10-22T19:57:59.322Z,1.74
2022-10-22T20:00:25.744Z,1.68
2022-10-22T20:02:52.173Z,1.69
2022-10-22T20:05:18.554Z,1.70
2022-10-22T20:07:44.957Z,1.68
2022-10-22T20:10:11.317Z,1.76
2022-10-22T20:12:37.640Z,1.62
2022-10-22T20:15:03.978Z,1.68
2022-10-22T20:17:30.302Z,1.79
2022-10-22T20:19:56.628Z,1.69
2022-10-22T20:22:22.970Z,1.62
2022-10-22T20:24:49.301Z,1.73
2022-10-22T20:27:15.623Z,1.55
2022-10-22T20:29:41.957Z,1.68
2022-10-22T20:32:08.910Z,1.47
2022-10-22T20:34:35.407Z,1.55
2022-10-22T20:37:01.737Z,1.56
2022-10-22T20:39:28.069Z,1.45
2022-10-22T20:41:54.409Z,2.34
2022-10-22T20:44:20.745Z,7.01
2022-10-22T20:46:47.193Z,11.65
2022-10-22T20:49:13.589Z,10.88
2022-10-22T20:51:39.934Z,9.36
2022-10-22T20:54:06.265Z,7.28
2022-10-22T20:56:32.602Z,1.76
2022-10-22T20:58:59.086Z,4.44
2022-10-22T21:01:25.454Z,5.67
2022-10-22T21:03:51.803Z,6.79
2022-10-22T21:06:18.124Z,7.40
2022-10-22T21:08:44.486Z,5.89
2022-10-22T21:11:10.848Z,5.07
2022-10-22T21:13:37.175Z,4.94
2022-10-22T21:16:03.505Z,4.48
2022-10-22T21:18:29.833Z,4.08
2022-10-22T21:20:56.163Z,4.34
2022-10-22T21:23:22.501Z,4.36
2022-10-22T21:25:48.838Z,4.00
2022-10-22T21:28:15.173Z,3.91
2022-10-22T21:30:41.502Z,3.99
2022-10-22T21:33:07.833Z,4.05
2022-10-22T21:35:34.171Z,4.08
2022-10-22T21:38:00.520Z,3.66
2022-10-22T21:40:26.857Z,3.84
2022-10-22T21:42:53.178Z,3.79
2022-10-22T21:45:22.334Z,3.91
2022-10-22T21:47:48.913Z,3.44
2022-10-22T21:50:15.240Z,3.65
2022-10-22T21:52:41.567Z,3.36
2022-10-22T21:55:07.909Z,3.23
2022-10-22T21:57:34.249Z,3.33
2022-10-22T22:00:00.578Z,3.25
2022-10-22T22:02:26.910Z,3.02
2022-10-22T22:04:53.237Z,3.08
2022-10-22T22:07:19.574Z,3.13
2022-10-22T22:09:45.909Z,3.14
2022-10-22T22:12:12.242Z,3.13
2022-10-22T22:14:38.568Z,2.94
2022-10-22T22:17:04.896Z,3.08
2022-10-22T22:19:31.225Z,2.89
2022-10-22T22:21:57.577Z,2.80
2022-10-22T22:24:23.917Z,2.60
2022-10-22T22:26:50.248Z,2.26
2022-10-22T22:29:16.577Z,2.53
2022-10-22T22:31:42.920Z,2.54
2022-10-22T22:34:09.245Z,2.11
2022-10-22T22:36:35.585Z,2.27
2022-10-22T22:39:01.913Z,2.11
2022-10-22T22:41:28.227Z,2.25
2022-10-22T22:46:21.770Z,2.13
2022-10-22T22:48:48.083Z,2.11
2022-10-22T22:51:14.421Z,2.10
2022-10-22T22:53:40.759Z,2.27
2022-10-22T22:56:07.084Z,1.82
2022-10-22T22:58:33.422Z,2.16
2022-10-22T23:00:59.801Z,2.16
2022-10-22T23:03:26.159Z,2.09
2022-10-22T23:05:52.484Z,2.02
2022-10-22T23:08:18.821Z,1.60
2022-10-22T23:10:45.169Z,1.62
2022-10-22T23:13:11.501Z,1.82
2022-10-22T23:15:37.830Z,1.80
2022-10-22T23:18:04.167Z,1.80
2022-10-22T23:20:30.476Z,1.61
2022-10-22T23:22:56.805Z,1.72
2022-10-22T23:25:23.143Z,1.76
2022-10-22T23:27:49.477Z,1.80
2022-10-22T23:30:15.808Z,1.79
2022-10-22T23:32:42.139Z,1.61
2022-10-22T23:35:08.474Z,1.41
2022-10-22T23:37:34.806Z,1.63
2022-10-22T23:40:01.150Z,1.50
2022-10-22T23:42:27.526Z,1.54
2022-10-22T23:44:53.917Z,1.56
2022-10-22T23:47:20.247Z,1.44
2022-10-22T23:49:46.565Z,1.46
2022-10-22T23:52:12.889Z,1.43
2022-10-22T23:54:39.211Z,1.64
2022-10-22T23:57:05.539Z,1.59
2022-10-22T23:59:31.863Z,1.65
